Main page
METAR-TAF:

METAR-TAF

Airports :

Cascais, Portugal

Cascais Municipal Aerodrome

latitude: 38-43-32N, longitude: 009-21-19W, elevation: 99 m

Current weather observation

The report was made 3 hours and 28 minutes ago, at 20:00 UTC
Wind 20 kt from the North
Temperature 17°C
Humidity 77%
Pressure 1016 hPa
Visibility 10 km or more
Few clouds at a height of 1200 ft

METAR: LPCS 222000Z 35020KT 9999 FEW012 17/13 Q1016

Time: 00:28 (23:28 UTC)


TAF: missing

Weather observations and forecasts of more than 4000 airports (METAR and TAF reports).

The available stations are represented by yellow and red dots on the map.

Hover mouse over dot to see the name of the station.

Then click to see weather observations and forecasts.

To change the map : click on the green buttons with a black cross to zoom in, on the green button with a dash to zoom out, or on the green arrows for adjacent maps.


METAR-TAF: